Eurocargo Venezia — IBKS — position and weather

sailwx.info

Track history (hours):
 
Tides and Currents Weather Stations Pressure Air Temp Water Temp Dewpoint Dewpoint Depression Visibility Wind Speed Wind Dir Waves Ship Positions

Eurocargo Venezia

Last reported at 2018-Apr-20 17:09 UTC. Time now 2018-Apr-20 18:40 UTC.
Position N 40°56' E 013°24'.

Length 200 m; draft 7.2 m.

Type: Cargo ship. MMSI: 247297200.

Date/timePositionNaut miles runAvg speedWind from/ knotsBaromVisibWave heightAir tempDewpointWater temp
2018-Apr-20 17:09N 40°56' E 013°24'319.5
2018-Apr-20 16:59N 40°53' E 013°28'919.7
2018-Apr-20 16:30N 40°47' E 013°36'1019.7
2018-Apr-20 16:00N 40°39' E 013°44'1019.6
2018-Apr-20 15:30N 40°31' E 013°51'1019.7
2018-Apr-20 15:00N 40°23' E 013°59'1019.6
2018-Apr-20 14:30N 40°14' E 014°06'1019.7
2018-Apr-20 14:00N 40°06' E 014°13'8619.6
2018-Apr-20 09:37N 38°54' E 015°15'1619.9
2018-Apr-20 08:49N 38°41' E 015°26'719.9
2018-Apr-20 08:28N 38°35' E 015°31'919.8
2018-Apr-20 08:00N 38°27' E 015°36'1020.0
2018-Apr-20 07:29N 38°18' E 015°43'816.4
2018-Apr-20 07:00N 38°12' E 015°37'916.8
2018-Apr-20 06:28N 38°03' E 015°33'1020.4
2018-Apr-20 05:58N 37°54' E 015°28'91 5.7
2018-Apr-19 13:56N 36°25' E 014°60'614.2
2018-Apr-19 13:29N 36°20' E 014°55'1219.8
2018-Apr-19 12:53N 36°11' E 014°46'615.3
2018-Apr-19 12:30N 36°06' E 014°42'918.1
2018-Apr-19 11:59N 35°58' E 014°35'610.8
2018-Apr-19 11:23N 35°53' E 014°31'0 0.0
2018-Apr-19 10:46N 35°53' E 014°31'0 0.0
2018-Apr-19 10:29N 35°53' E 014°31'0 0.0
2018-Apr-19 09:50N 35°53' E 014°31'0 0.0
2018-Apr-19 09:30N 35°53' E 014°31'0 0.0
2018-Apr-19 08:59N 35°53' E 014°31'0 0.0
2018-Apr-19 08:25N 35°53' E 014°31'0 0.0
2018-Apr-19 07:59N 35°53' E 014°31'0 0.0
2018-Apr-19 07:27N 35°53' E 014°31'0 0.0
2018-Apr-19 06:59N 35°53' E 014°31'0 0.0
2018-Apr-19 06:30N 35°53' E 014°31'0 0.0
2018-Apr-19 05:58N 35°53' E 014°31'0 0.0
2018-Apr-19 05:27N 35°53' E 014°31'0 0.0
2018-Apr-19 05:00N 35°53' E 014°31'0 0.0
2018-Apr-19 04:29N 35°53' E 014°31'0 0.0
2018-Apr-19 03:59N 35°53' E 014°31'0 0.0
2018-Apr-19 03:28N 35°53' E 014°31'0 0.0
2018-Apr-19 02:57N 35°53' E 014°31'1 1.5
2018-Apr-19 02:14N 35°54' E 014°31'1 4.3
2018-Apr-19 01:59N 35°55' E 014°32'816.2
2018-Apr-19 01:30N 36°01' E 014°38'1019.3
2018-Apr-19 01:00N 36°09' E 014°45'110 6.8
2018-Apr-18 08:47N 37°54' E 015°26'1119.0
2018-Apr-18 08:14N 38°03' E 015°32'518.9
2018-Apr-18 07:59N 38°08' E 015°34'817.4
2018-Apr-18 07:30N 38°15' E 015°38'815.5
2018-Apr-18 07:00N 38°23' E 015°36'1018.8
2018-Apr-18 06:30N 38°30' E 015°28'1018.9
2018-Apr-18 05:58N 38°37' E 015°19'9519.2
2018-Apr-18 01:01N 39°58' E 014°15'218.7
2018-Apr-18 00:55N 39°60' E 014°13'818.8
2018-Apr-18 00:30N 40°06' E 014°08'1319.2
2018-Apr-17 23:49N 40°18' E 013°59'719.3
2018-Apr-17 23:28N 40°23' E 013°55'919.0
2018-Apr-17 23:00N 40°31' E 013°49'1019.1
2018-Apr-17 22:31N 40°39' E 013°43'1119.0
2018-Apr-17 21:55N 40°48' E 013°34'16419.2
2018-Apr-17 13:22N 42°34' E 010°47'719.4
2018-Apr-17 13:00N 42°40' E 010°42'1019.7
2018-Apr-17 12:31N 42°48' E 010°34'1019.8
2018-Apr-17 12:00N 42°57' E 010°27'1019.5
2018-Apr-17 11:30N 43°06' E 010°22'1019.9
2018-Apr-17 11:00N 43°16' E 010°18'1020.0
2018-Apr-17 10:30N 43°25' E 010°14'713.8
2018-Apr-17 10:00N 43°32' E 010°16'3 6.6
2018-Apr-17 09:30N 43°34' E 010°19'0 0.7
2018-Apr-17 09:00N 43°35' E 010°19'0 0.0
2018-Apr-17 08:30N 43°35' E 010°19'0 0.0
2018-Apr-17 08:00N 43°35' E 010°19'0 0.0
2018-Apr-17 07:31N 43°35' E 010°19'0 0.0
2018-Apr-17 07:01N 43°35' E 010°19'0 0.0
2018-Apr-17 06:31N 43°35' E 010°19'0 0.0
2018-Apr-17 06:00N 43°35' E 010°19'0 0.0
2018-Apr-17 05:31N 43°35' E 010°19'0 0.0
2018-Apr-17 05:00N 43°35' E 010°19'0 0.0
2018-Apr-17 04:30N 43°35' E 010°19'0 0.0
2018-Apr-17 04:00N 43°35' E 010°19'0 0.0
2018-Apr-17 03:30N 43°35' E 010°19'0 0.0
2018-Apr-17 03:00N 43°35' E 010°19'0 0.0
2018-Apr-17 02:30N 43°35' E 010°19'0 0.0
2018-Apr-17 02:00N 43°35' E 010°19'0 0.0
2018-Apr-17 01:30N 43°35' E 010°19'0 0.0
2018-Apr-17 01:00N 43°35' E 010°19'0 0.0
2018-Apr-17 00:30N 43°35' E 010°19'2 3.7
2018-Apr-17 00:01N 43°33' E 010°18'611.2
2018-Apr-16 23:30N 43°30' E 010°11'1019.7
2018-Apr-16 23:01N 43°32' E 009°58'1020.1
2018-Apr-16 22:30N 43°38' E 009°47'1020.3
2018-Apr-16 22:01N 43°46' E 009°38'1020.4
2018-Apr-16 21:30N 43°54' E 009°29'1020.5
2018-Apr-16 21:00N 44°01' E 009°19'1020.3
2018-Apr-16 20:30N 44°09' E 009°10'1019.9
2018-Apr-16 20:00N 44°17' E 009°02'816.4
2018-Apr-16 19:30N 44°24' E 008°55'2 3.2
2018-Apr-16 19:00N 44°24' E 008°53'0 0.0
2018-Apr-16 18:30N 44°24' E 008°53'0 0.0
2018-Apr-16 18:00N 44°24' E 008°53'0 0.0
2018-Apr-16 17:30N 44°24' E 008°53'0 0.0
2018-Apr-16 17:00N 44°24' E 008°53'0 0.0
2018-Apr-16 16:30N 44°24' E 008°53'0 0.0
2018-Apr-16 16:00N 44°24' E 008°53'0 0.0
2018-Apr-16 15:30N 44°24' E 008°53'0 0.0
2018-Apr-16 15:00N 44°24' E 008°53'0 0.0
2018-Apr-16 14:30N 44°24' E 008°53'0 0.0
2018-Apr-16 14:00N 44°24' E 008°53'0 0.0
2018-Apr-16 13:30N 44°24' E 008°53'0 0.0
2018-Apr-16 13:00N 44°24' E 008°53'0 0.0
2018-Apr-16 12:30N 44°24' E 008°53'0 0.0
2018-Apr-16 12:00N 44°24' E 008°53'0 0.0
2018-Apr-16 11:30N 44°24' E 008°53'0 0.0
2018-Apr-16 11:00N 44°24' E 008°53'0 0.0
2018-Apr-16 10:30N 44°24' E 008°53'2 3.7
2018-Apr-16 10:00N 44°24' E 008°56'612.5
2018-Apr-16 09:30N 44°19' E 009°01'1019.7
2018-Apr-16 09:00N 44°11' E 009°10'1019.6
2018-Apr-16 08:30N 44°04' E 009°19'1019.1
2018-Apr-16 08:00N 43°56' E 009°27'1019.3
2018-Apr-16 07:30N 43°49' E 009°36'919.4
2018-Apr-16 07:00N 43°41' E 009°44'1019.3
2018-Apr-16 06:30N 43°34' E 009°53'1019.4
2018-Apr-16 06:00N 43°28' E 010°03'1019.2
2018-Apr-16 05:30N 43°19' E 010°09'919.0
2018-Apr-16 05:00N 43°11' E 010°16'1019.0
2018-Apr-16 04:30N 43°03' E 010°22'1019.2
2018-Apr-16 04:00N 42°54' E 010°29'1119.3
2018-Apr-16 03:27N 42°45' E 010°37'3218.9
2018-Apr-16 01:47N 42°22' E 011°05'14219.3
2018-Apr-15 18:26N 40°51' E 013°31'1619.3
2018-Apr-15 17:36N 40°41' E 013°46'219.5
2018-Apr-15 17:29N 40°39' E 013°49'919.2
2018-Apr-15 17:00N 40°33' E 013°58'1619.5
2018-Apr-15 16:10N 40°22' E 014°14'619.6
2018-Apr-15 15:52N 40°18' E 014°20'719.6
2018-Apr-15 15:30N 40°13' E 014°27'9818.3
2018-Apr-15 10:10N 38°49' E 015°30'319.2
2018-Apr-15 09:59N 38°46' E 015°32'919.3
2018-Apr-15 09:30N 38°37' E 015°35'1119.6
2018-Apr-15 08:58N 38°26' E 015°39'918.8
2018-Apr-15 08:29N 38°18' E 015°42'815.7
2018-Apr-15 08:00N 38°11' E 015°37'918.4
2018-Apr-15 07:30N 38°02' E 015°34'917.8
2018-Apr-15 07:00N 37°55' E 015°27'99 5.8
2018-Apr-14 13:55N 36°20' E 014°54'1220.4
2018-Apr-14 13:19N 36°09' E 014°45'617.8
2018-Apr-14 12:58N 36°04' E 014°41'714.1
2018-Apr-14 12:29N 35°59' E 014°36'8 2.2
2018-Apr-14 09:05N 35°53' E 014°31'0 0.0
2018-Apr-14 06:45N 35°53' E 014°31'0 0.0
2018-Apr-14 03:08N 35°53' E 014°31'0 0.0
2018-Apr-14 02:59N 35°53' E 014°31'2 4.0
2018-Apr-14 02:30N 35°55' E 014°32'714.3
2018-Apr-14 02:00N 36°01' E 014°37'1321.0
2018-Apr-14 01:23N 36°11' E 014°47'514.0
2018-Apr-14 01:00N 36°15' E 014°51'2023.0
2018-Apr-14 00:07N 36°32' E 015°05'2 8.7
2018-Apr-13 23:52N 36°34' E 015°07'1026.2
2018-Apr-13 23:30N 36°42' E 015°14'510.6
2018-Apr-13 22:59N 36°46' E 015°17'816.3
2018-Apr-13 22:29N 36°54' E 015°21'68 5.3
2018-Apr-13 09:33N 38°01' E 015°31'219.3
2018-Apr-13 09:26N 38°03' E 015°32'1020.4
2018-Apr-13 08:57N 38°13' E 015°36'716.2
2018-Apr-13 08:30N 38°19' E 015°40'1120.0
2018-Apr-13 07:58N 38°28' E 015°30'1219.8
2018-Apr-13 07:22N 38°36' E 015°20'819.8
2018-Apr-13 06:59N 38°42' E 015°14'9120.0
2018-Apr-13 02:27N 39°60' E 014°14'2220.3
2018-Apr-13 01:23N 40°19' E 013°59'820.1
2018-Apr-13 00:59N 40°25' E 013°54'1020.2
2018-Apr-13 00:30N 40°34' E 013°47'1020.3
2018-Apr-13 00:00N 40°42' E 013°40'17820.0
2018-Apr-12 15:08N 42°40' E 010°41'320.8
2018-Apr-12 15:00N 42°42' E 010°39'1120.7
2018-Apr-12 14:28N 42°51' E 010°31'919.8
2018-Apr-12 14:00N 42°59' E 010°26'1020.0
2018-Apr-12 13:31N 43°09' E 010°21'1020.1
2018-Apr-12 13:01N 43°19' E 010°17'1019.4
2018-Apr-12 12:31N 43°28' E 010°13'611.4
2018-Apr-12 12:01N 43°32' E 010°17'3 5.1
2018-Apr-12 11:30N 43°35' E 010°19'0 0.1
2018-Apr-12 11:00N 43°35' E 010°19'0 0.0
2018-Apr-12 10:30N 43°35' E 010°19'0 0.0
2018-Apr-12 10:00N 43°35' E 010°19'0 0.0
2018-Apr-12 09:30N 43°35' E 010°19'0 0.0
2018-Apr-12 09:00N 43°35' E 010°19'0 0.0
2018-Apr-12 08:30N 43°35' E 010°19'0 0.0
2018-Apr-12 08:00N 43°35' E 010°19'0 0.0
2018-Apr-12 07:30N 43°35' E 010°19'0 0.0
2018-Apr-12 07:00N 43°35' E 010°19'0 0.0
2018-Apr-12 06:30N 43°35' E 010°19'0 0.0
2018-Apr-12 06:00N 43°35' E 010°19'0 0.0
2018-Apr-12 05:29N 43°35' E 010°19'0 0.0
2018-Apr-12 05:00N 43°35' E 010°19'0 0.0
2018-Apr-12 04:30N 43°35' E 010°19'0 0.0
2018-Apr-12 04:00N 43°35' E 010°19'0 0.0
2018-Apr-12 03:30N 43°35' E 010°19'0 0.0
2018-Apr-12 03:00N 43°35' E 010°19'0 0.4
2018-Apr-12 02:30N 43°35' E 010°19'3 6.5
2018-Apr-12 02:00N 43°32' E 010°16'714.6
2018-Apr-12 01:30N 43°30' E 010°07'1020.3
2018-Apr-12 01:00N 43°33' E 009°53'1020.4
2018-Apr-12 00:30N 43°41' E 009°44'1020.2
2018-Apr-12 00:00N 43°49' E 009°35'1019.7
2018-Apr-11 23:30N 43°56' E 009°26'1019.7
2018-Apr-11 23:00N 44°04' E 009°17'1019.7
2018-Apr-11 22:30N 44°11' E 009°08'1019.5
2018-Apr-11 22:00N 44°18' E 008°59'713.4
2018-Apr-11 21:31N 44°24' E 008°54'1 1.4
2018-Apr-11 21:01N 44°24' E 008°53'0 0.0
2018-Apr-11 20:30N 44°24' E 008°53'0 0.0
2018-Apr-11 20:01N 44°24' E 008°53'0 0.0
2018-Apr-11 19:31N 44°24' E 008°53'0 0.0
2018-Apr-11 19:00N 44°24' E 008°53'0 0.0
2018-Apr-11 18:31N 44°24' E 008°53'0 0.0
2018-Apr-11 18:00N 44°24' E 008°53'0 0.0
2018-Apr-11 17:31N 44°24' E 008°53'0 0.0
2018-Apr-11 17:00N 44°24' E 008°53'0 0.0
2018-Apr-11 16:31N 44°24' E 008°53'0 0.0
2018-Apr-11 16:01N 44°24' E 008°53'0 0.0
2018-Apr-11 15:31N 44°24' E 008°53'0 0.0
2018-Apr-11 15:01N 44°24' E 008°53'0 0.0
2018-Apr-11 14:30N 44°24' E 008°53'0 0.0
2018-Apr-11 14:01N 44°24' E 008°53'0 0.0
2018-Apr-11 13:31N 44°24' E 008°53'0 0.0
2018-Apr-11 13:01N 44°24' E 008°53'0 0.0
2018-Apr-11 12:31N 44°24' E 008°53'0 0.2
2018-Apr-11 12:01N 44°24' E 008°53'3 5.1
2018-Apr-11 11:30N 44°23' E 008°57'2 4.0
2018-Apr-11 11:01N 44°22' E 008°58'612.0
2018-Apr-11 10:30N 44°17' E 009°03'918.3
2018-Apr-11 10:00N 44°10' E 009°11'918.3
2018-Apr-11 09:30N 44°03' E 009°20'918.4
2018-Apr-11 09:00N 43°56' E 009°28'918.6
2018-Apr-11 08:30N 43°49' E 009°36'918.7
2018-Apr-11 08:00N 43°41' E 009°44'918.8
2018-Apr-11 07:30N 43°34' E 009°52'918.4
2018-Apr-11 07:00N 43°28' E 010°03'918.5
2018-Apr-11 06:30N 43°20' E 010°09'918.5
2018-Apr-11 06:00N 43°12' E 010°15'918.4
2018-Apr-11 05:30N 43°04' E 010°21'2418.9
2018-Apr-11 04:14N 42°44' E 010°38'16419.1
2018-Apr-10 19:39N 40°56' E 013°24'1019.5
2018-Apr-10 19:08N 40°49' E 013°33'2319.1
2018-Apr-10 17:56N 40°31' E 013°51'  
Track history (hours):
 
Tides and Currents Weather Stations Pressure Air Temp Water Temp Dewpoint Dewpoint Depression Visibility Wind Speed Wind Dir Waves Ship Positions

Eurocargo Venezia

Last reported at 2018-Apr-20 17:09 UTC. Time now 2018-Apr-20 18:40 UTC.
Position N 40°56' E 013°24'.

Length 200 m; draft 7.2 m.

Type: Cargo ship. MMSI: 247297200.

Date/timePositionNaut miles runAvg speedWind from/ knotsBaromVisibWave heightAir tempDewpointWater temp
2018-Apr-20 17:09N 40°56' E 013°24'319.5
2018-Apr-20 16:59N 40°53' E 013°28'919.7
2018-Apr-20 16:30N 40°47' E 013°36'1019.7
2018-Apr-20 16:00N 40°39' E 013°44'1019.6
2018-Apr-20 15:30N 40°31' E 013°51'1019.7
2018-Apr-20 15:00N 40°23' E 013°59'1019.6
2018-Apr-20 14:30N 40°14' E 014°06'1019.7
2018-Apr-20 14:00N 40°06' E 014°13'8619.6
2018-Apr-20 09:37N 38°54' E 015°15'1619.9
2018-Apr-20 08:49N 38°41' E 015°26'719.9
2018-Apr-20 08:28N 38°35' E 015°31'919.8
2018-Apr-20 08:00N 38°27' E 015°36'1020.0
2018-Apr-20 07:29N 38°18' E 015°43'816.4
2018-Apr-20 07:00N 38°12' E 015°37'916.8
2018-Apr-20 06:28N 38°03' E 015°33'1020.4
2018-Apr-20 05:58N 37°54' E 015°28'91 5.7
2018-Apr-19 13:56N 36°25' E 014°60'614.2
2018-Apr-19 13:29N 36°20' E 014°55'1219.8
2018-Apr-19 12:53N 36°11' E 014°46'615.3
2018-Apr-19 12:30N 36°06' E 014°42'918.1
2018-Apr-19 11:59N 35°58' E 014°35'610.8
2018-Apr-19 11:23N 35°53' E 014°31'0 0.0
2018-Apr-19 10:46N 35°53' E 014°31'0 0.0
2018-Apr-19 10:29N 35°53' E 014°31'0 0.0
2018-Apr-19 09:50N 35°53' E 014°31'0 0.0
2018-Apr-19 09:30N 35°53' E 014°31'0 0.0
2018-Apr-19 08:59N 35°53' E 014°31'0 0.0
2018-Apr-19 08:25N 35°53' E 014°31'0 0.0
2018-Apr-19 07:59N 35°53' E 014°31'0 0.0
2018-Apr-19 07:27N 35°53' E 014°31'0 0.0
2018-Apr-19 06:59N 35°53' E 014°31'0 0.0
2018-Apr-19 06:30N 35°53' E 014°31'0 0.0
2018-Apr-19 05:58N 35°53' E 014°31'0 0.0
2018-Apr-19 05:27N 35°53' E 014°31'0 0.0
2018-Apr-19 05:00N 35°53' E 014°31'0 0.0
2018-Apr-19 04:29N 35°53' E 014°31'0 0.0
2018-Apr-19 03:59N 35°53' E 014°31'0 0.0
2018-Apr-19 03:28N 35°53' E 014°31'0 0.0
2018-Apr-19 02:57N 35°53' E 014°31'1 1.5
2018-Apr-19 02:14N 35°54' E 014°31'1 4.3
2018-Apr-19 01:59N 35°55' E 014°32'816.2
2018-Apr-19 01:30N 36°01' E 014°38'1019.3
2018-Apr-19 01:00N 36°09' E 014°45'110 6.8
2018-Apr-18 08:47N 37°54' E 015°26'1119.0
2018-Apr-18 08:14N 38°03' E 015°32'518.9
2018-Apr-18 07:59N 38°08' E 015°34'817.4
2018-Apr-18 07:30N 38°15' E 015°38'815.5
2018-Apr-18 07:00N 38°23' E 015°36'1018.8
2018-Apr-18 06:30N 38°30' E 015°28'1018.9
2018-Apr-18 05:58N 38°37' E 015°19'9519.2
2018-Apr-18 01:01N 39°58' E 014°15'218.7
2018-Apr-18 00:55N 39°60' E 014°13'818.8
2018-Apr-18 00:30N 40°06' E 014°08'1319.2
2018-Apr-17 23:49N 40°18' E 013°59'719.3
2018-Apr-17 23:28N 40°23' E 013°55'919.0
2018-Apr-17 23:00N 40°31' E 013°49'1019.1
2018-Apr-17 22:31N 40°39' E 013°43'1119.0
2018-Apr-17 21:55N 40°48' E 013°34'16419.2
2018-Apr-17 13:22N 42°34' E 010°47'719.4
2018-Apr-17 13:00N 42°40' E 010°42'1019.7
2018-Apr-17 12:31N 42°48' E 010°34'1019.8
2018-Apr-17 12:00N 42°57' E 010°27'1019.5
2018-Apr-17 11:30N 43°06' E 010°22'1019.9
2018-Apr-17 11:00N 43°16' E 010°18'1020.0
2018-Apr-17 10:30N 43°25' E 010°14'713.8
2018-Apr-17 10:00N 43°32' E 010°16'3 6.6
2018-Apr-17 09:30N 43°34' E 010°19'0 0.7
2018-Apr-17 09:00N 43°35' E 010°19'0 0.0
2018-Apr-17 08:30N 43°35' E 010°19'0 0.0
2018-Apr-17 08:00N 43°35' E 010°19'0 0.0
2018-Apr-17 07:31N 43°35' E 010°19'0 0.0
2018-Apr-17 07:01N 43°35' E 010°19'0 0.0
2018-Apr-17 06:31N 43°35' E 010°19'0 0.0
2018-Apr-17 06:00N 43°35' E 010°19'0 0.0
2018-Apr-17 05:31N 43°35' E 010°19'0 0.0
2018-Apr-17 05:00N 43°35' E 010°19'0 0.0
2018-Apr-17 04:30N 43°35' E 010°19'0 0.0
2018-Apr-17 04:00N 43°35' E 010°19'0 0.0
2018-Apr-17 03:30N 43°35' E 010°19'0 0.0
2018-Apr-17 03:00N 43°35' E 010°19'0 0.0
2018-Apr-17 02:30N 43°35' E 010°19'0 0.0
2018-Apr-17 02:00N 43°35' E 010°19'0 0.0
2018-Apr-17 01:30N 43°35' E 010°19'0 0.0
2018-Apr-17 01:00N 43°35' E 010°19'0 0.0
2018-Apr-17 00:30N 43°35' E 010°19'2 3.7
2018-Apr-17 00:01N 43°33' E 010°18'611.2
2018-Apr-16 23:30N 43°30' E 010°11'1019.7
2018-Apr-16 23:01N 43°32' E 009°58'1020.1
2018-Apr-16 22:30N 43°38' E 009°47'1020.3
2018-Apr-16 22:01N 43°46' E 009°38'1020.4
2018-Apr-16 21:30N 43°54' E 009°29'1020.5
2018-Apr-16 21:00N 44°01' E 009°19'1020.3
2018-Apr-16 20:30N 44°09' E 009°10'1019.9
2018-Apr-16 20:00N 44°17' E 009°02'816.4
2018-Apr-16 19:30N 44°24' E 008°55'2 3.2
2018-Apr-16 19:00N 44°24' E 008°53'0 0.0
2018-Apr-16 18:30N 44°24' E 008°53'0 0.0
2018-Apr-16 18:00N 44°24' E 008°53'0 0.0
2018-Apr-16 17:30N 44°24' E 008°53'0 0.0
2018-Apr-16 17:00N 44°24' E 008°53'0 0.0
2018-Apr-16 16:30N 44°24' E 008°53'0 0.0
2018-Apr-16 16:00N 44°24' E 008°53'0 0.0
2018-Apr-16 15:30N 44°24' E 008°53'0 0.0
2018-Apr-16 15:00N 44°24' E 008°53'0 0.0
2018-Apr-16 14:30N 44°24' E 008°53'0 0.0
2018-Apr-16 14:00N 44°24' E 008°53'0 0.0
2018-Apr-16 13:30N 44°24' E 008°53'0 0.0
2018-Apr-16 13:00N 44°24' E 008°53'0 0.0
2018-Apr-16 12:30N 44°24' E 008°53'0 0.0
2018-Apr-16 12:00N 44°24' E 008°53'0 0.0
2018-Apr-16 11:30N 44°24' E 008°53'0 0.0
2018-Apr-16 11:00N 44°24' E 008°53'0 0.0
2018-Apr-16 10:30N 44°24' E 008°53'2 3.7
2018-Apr-16 10:00N 44°24' E 008°56'612.5
2018-Apr-16 09:30N 44°19' E 009°01'1019.7
2018-Apr-16 09:00N 44°11' E 009°10'1019.6
2018-Apr-16 08:30N 44°04' E 009°19'1019.1
2018-Apr-16 08:00N 43°56' E 009°27'1019.3
2018-Apr-16 07:30N 43°49' E 009°36'919.4
2018-Apr-16 07:00N 43°41' E 009°44'1019.3
2018-Apr-16 06:30N 43°34' E 009°53'1019.4
2018-Apr-16 06:00N 43°28' E 010°03'1019.2
2018-Apr-16 05:30N 43°19' E 010°09'919.0
2018-Apr-16 05:00N 43°11' E 010°16'1019.0
2018-Apr-16 04:30N 43°03' E 010°22'1019.2
2018-Apr-16 04:00N 42°54' E 010°29'1119.3
2018-Apr-16 03:27N 42°45' E 010°37'3218.9
2018-Apr-16 01:47N 42°22' E 011°05'14219.3
2018-Apr-15 18:26N 40°51' E 013°31'1619.3
2018-Apr-15 17:36N 40°41' E 013°46'219.5
2018-Apr-15 17:29N 40°39' E 013°49'919.2
2018-Apr-15 17:00N 40°33' E 013°58'1619.5
2018-Apr-15 16:10N 40°22' E 014°14'619.6
2018-Apr-15 15:52N 40°18' E 014°20'719.6
2018-Apr-15 15:30N 40°13' E 014°27'9818.3
2018-Apr-15 10:10N 38°49' E 015°30'319.2
2018-Apr-15 09:59N 38°46' E 015°32'919.3
2018-Apr-15 09:30N 38°37' E 015°35'1119.6
2018-Apr-15 08:58N 38°26' E 015°39'918.8
2018-Apr-15 08:29N 38°18' E 015°42'815.7
2018-Apr-15 08:00N 38°11' E 015°37'918.4
2018-Apr-15 07:30N 38°02' E 015°34'917.8
2018-Apr-15 07:00N 37°55' E 015°27'99 5.8
2018-Apr-14 13:55N 36°20' E 014°54'1220.4
2018-Apr-14 13:19N 36°09' E 014°45'617.8
2018-Apr-14 12:58N 36°04' E 014°41'714.1
2018-Apr-14 12:29N 35°59' E 014°36'8 2.2
2018-Apr-14 09:05N 35°53' E 014°31'0 0.0
2018-Apr-14 06:45N 35°53' E 014°31'0 0.0
2018-Apr-14 03:08N 35°53' E 014°31'0 0.0
2018-Apr-14 02:59N 35°53' E 014°31'2 4.0
2018-Apr-14 02:30N 35°55' E 014°32'714.3
2018-Apr-14 02:00N 36°01' E 014°37'1321.0
2018-Apr-14 01:23N 36°11' E 014°47'514.0
2018-Apr-14 01:00N 36°15' E 014°51'2023.0
2018-Apr-14 00:07N 36°32' E 015°05'2 8.7
2018-Apr-13 23:52N 36°34' E 015°07'1026.2
2018-Apr-13 23:30N 36°42' E 015°14'510.6
2018-Apr-13 22:59N 36°46' E 015°17'816.3
2018-Apr-13 22:29N 36°54' E 015°21'68 5.3
2018-Apr-13 09:33N 38°01' E 015°31'219.3
2018-Apr-13 09:26N 38°03' E 015°32'1020.4
2018-Apr-13 08:57N 38°13' E 015°36'716.2
2018-Apr-13 08:30N 38°19' E 015°40'1120.0
2018-Apr-13 07:58N 38°28' E 015°30'1219.8
2018-Apr-13 07:22N 38°36' E 015°20'819.8
2018-Apr-13 06:59N 38°42' E 015°14'9120.0
2018-Apr-13 02:27N 39°60' E 014°14'2220.3
2018-Apr-13 01:23N 40°19' E 013°59'820.1
2018-Apr-13 00:59N 40°25' E 013°54'1020.2
2018-Apr-13 00:30N 40°34' E 013°47'1020.3
2018-Apr-13 00:00N 40°42' E 013°40'17820.0
2018-Apr-12 15:08N 42°40' E 010°41'320.8
2018-Apr-12 15:00N 42°42' E 010°39'1120.7
2018-Apr-12 14:28N 42°51' E 010°31'919.8
2018-Apr-12 14:00N 42°59' E 010°26'1020.0
2018-Apr-12 13:31N 43°09' E 010°21'1020.1
2018-Apr-12 13:01N 43°19' E 010°17'1019.4
2018-Apr-12 12:31N 43°28' E 010°13'611.4
2018-Apr-12 12:01N 43°32' E 010°17'3 5.1
2018-Apr-12 11:30N 43°35' E 010°19'0 0.1
2018-Apr-12 11:00N 43°35' E 010°19'0 0.0
2018-Apr-12 10:30N 43°35' E 010°19'0 0.0
2018-Apr-12 10:00N 43°35' E 010°19'0 0.0
2018-Apr-12 09:30N 43°35' E 010°19'0 0.0
2018-Apr-12 09:00N 43°35' E 010°19'0 0.0
2018-Apr-12 08:30N 43°35' E 010°19'0 0.0
2018-Apr-12 08:00N 43°35' E 010°19'0 0.0
2018-Apr-12 07:30N 43°35' E 010°19'0 0.0
2018-Apr-12 07:00N 43°35' E 010°19'0 0.0
2018-Apr-12 06:30N 43°35' E 010°19'0 0.0
2018-Apr-12 06:00N 43°35' E 010°19'0 0.0
2018-Apr-12 05:29N 43°35' E 010°19'0 0.0
2018-Apr-12 05:00N 43°35' E 010°19'0 0.0
2018-Apr-12 04:30N 43°35' E 010°19'0 0.0
2018-Apr-12 04:00N 43°35' E 010°19'0 0.0
2018-Apr-12 03:30N 43°35' E 010°19'0 0.0
2018-Apr-12 03:00N 43°35' E 010°19'0 0.4
2018-Apr-12 02:30N 43°35' E 010°19'3 6.5
2018-Apr-12 02:00N 43°32' E 010°16'714.6
2018-Apr-12 01:30N 43°30' E 010°07'1020.3
2018-Apr-12 01:00N 43°33' E 009°53'1020.4
2018-Apr-12 00:30N 43°41' E 009°44'1020.2
2018-Apr-12 00:00N 43°49' E 009°35'1019.7
2018-Apr-11 23:30N 43°56' E 009°26'1019.7
2018-Apr-11 23:00N 44°04' E 009°17'1019.7
2018-Apr-11 22:30N 44°11' E 009°08'1019.5
2018-Apr-11 22:00N 44°18' E 008°59'713.4
2018-Apr-11 21:31N 44°24' E 008°54'1 1.4
2018-Apr-11 21:01N 44°24' E 008°53'0 0.0
2018-Apr-11 20:30N 44°24' E 008°53'0 0.0
2018-Apr-11 20:01N 44°24' E 008°53'0 0.0
2018-Apr-11 19:31N 44°24' E 008°53'0 0.0
2018-Apr-11 19:00N 44°24' E 008°53'0 0.0
2018-Apr-11 18:31N 44°24' E 008°53'0 0.0
2018-Apr-11 18:00N 44°24' E 008°53'0 0.0
2018-Apr-11 17:31N 44°24' E 008°53'0 0.0
2018-Apr-11 17:00N 44°24' E 008°53'0 0.0
2018-Apr-11 16:31N 44°24' E 008°53'0 0.0
2018-Apr-11 16:01N 44°24' E 008°53'0 0.0
2018-Apr-11 15:31N 44°24' E 008°53'0 0.0
2018-Apr-11 15:01N 44°24' E 008°53'0 0.0
2018-Apr-11 14:30N 44°24' E 008°53'0 0.0
2018-Apr-11 14:01N 44°24' E 008°53'0 0.0
2018-Apr-11 13:31N 44°24' E 008°53'0 0.0
2018-Apr-11 13:01N 44°24' E 008°53'0 0.0
2018-Apr-11 12:31N 44°24' E 008°53'0 0.2
2018-Apr-11 12:01N 44°24' E 008°53'3 5.1
2018-Apr-11 11:30N 44°23' E 008°57'2 4.0
2018-Apr-11 11:01N 44°22' E 008°58'612.0
2018-Apr-11 10:30N 44°17' E 009°03'918.3
2018-Apr-11 10:00N 44°10' E 009°11'918.3
2018-Apr-11 09:30N 44°03' E 009°20'918.4
2018-Apr-11 09:00N 43°56' E 009°28'918.6
2018-Apr-11 08:30N 43°49' E 009°36'918.7
2018-Apr-11 08:00N 43°41' E 009°44'918.8
2018-Apr-11 07:30N 43°34' E 009°52'918.4
2018-Apr-11 07:00N 43°28' E 010°03'918.5
2018-Apr-11 06:30N 43°20' E 010°09'918.5
2018-Apr-11 06:00N 43°12' E 010°15'918.4
2018-Apr-11 05:30N 43°04' E 010°21'2418.9
2018-Apr-11 04:14N 42°44' E 010°38'16419.1
2018-Apr-10 19:39N 40°56' E 013°24'1019.5
2018-Apr-10 19:08N 40°49' E 013°33'2319.1
2018-Apr-10 17:56N 40°31' E 013°51'  

Dump ship's entire track history